METAR Data
IDs: Format: Raw Decoded Include TAF

Data at: 0622 UTC 23 Feb 2019

PAYA 230553Z AUTO 00000KT 10SM CLR M03/M09 A3023 RMK AO2 SLP236 T10331094 10006 21044 53035 TSNO
PAYA 230453Z AUTO 07007KT 10SM CLR M01/M16 A3019 RMK AO2 SLP224 T10061156 TSNO
PAYA 230353Z AUTO 07010KT 10SM CLR M01/M14 A3016 RMK AO2 SLP212 T10111144 TSNO
PAYA 230253Z AUTO 06008KT 10SM CLR M02/M13 A3012 RMK AO2 SLP201 T10171133 51034 TSNO
PAYA 230153Z AUTO 08009KT 10SM CLR M01/M13 A3009 RMK AO2 SLP191 T10061128 TSNO
PAYA 230053Z AUTO 10008KT 10SM CLR 01/M11 A3006 RMK AO2 SLP178 T00061111 TSNO
PAYA 222353Z AUTO 08007KT 10SM CLR 00/M11 A3003 RMK AO2 SLP167 T00001106 10011 21022 53027 TSNO
PAYA 222253Z AUTO 08011KT 10SM CLR 01/M10 A3000 RMK AO2 SLP158 T00061100 TSNO
PAYA 222153Z AUTO 08013KT 10SM CLR 01/M10 A2997 RMK AO2 SLP148 T00111100 TSNO
PAYA 222053Z AUTO 08012KT 10SM CLR 01/M11 A2994 RMK AO2 SLP140 T00061106 51028 TSNO
PAYA 221953Z AUTO 08007KT 10SM CLR 00/M09 A2992 RMK AO2 SLP131 T00001094 TSNO
PAYA 221853Z AUTO 08006KT 10SM CLR M01/M11 A2989 RMK AO2 SLP122 T10111106 TSNO
PAYA 221753Z AUTO 09007KT 10SM CLR M02/M11 A2986 RMK AO2 SLP111 T10221111 11006 21028 53027 TSNO
PAYA 221653Z AUTO 08012KT 10SM BKN110 M01/M11 A2983 RMK AO2 SLP102 T10111111 TSNO
PAYA 221553Z AUTO 09016G21KT 10SM BKN110 M01/M11 A2980 RMK AO2 SLP090 T10061106 TSNO
PAYA 221453Z AUTO 09009KT 10SM OVC110 M01/M09 A2978 RMK AO2 SLP084 T10061094 53025 TSNO
PAYA 221353Z AUTO 10007KT 10SM OVC120 M01/M08 A2975 RMK AO2 SLP075 T10111083 TSNO
PAYA 221253Z AUTO 11004KT 10SM FEW120 M03/M05 A2972 RMK AO2 SLP065 T10281050 TSNO
PAYA 221153Z AUTO 00000KT 10SM OVC120 M02/M03 A2971 RMK AO2 SLP059 70067 I1000 I6002 T10221033 10006 21022 51035 TSNO
PAYA 221053Z AUTO 00000KT 9SM OVC120 M02/M02 A2968 RMK AO2 SLP050 T10171022 TSNO
PAYA 220953Z AUTO 00000KT 10SM CLR M01/M02 A2964 RMK AO2 SLP038 I1001 T10111022 TSNO
PAYA 220939Z AUTO 35003KT 4SM BR CLR M01/M02 A2963 RMK AO2 I1000 T10111022 TSNO
PAYA 220931Z AUTO 00000KT 1 3/4SM BR CLR M01/M02 A2962 RMK AO2 I1000 T10111022 TSNO
PAYA 220910Z AUTO 00000KT 9SM CLR M01/M02 A2961 RMK AO2 T10111022 TSNO
PAYA 220903Z AUTO 00000KT 2SM BR CLR M01/M02 A2961 RMK AO2 T10111022 TSNO
PAYA 220853Z AUTO 00000KT 1 1/4SM BR CLR M01/M02 A2960 RMK AO2 VIS 1/2V5 SLP024 I1001 I3001 T10111022 400331011 51039 TSNO
PAYA 220846Z AUTO 00000KT 7SM CLR M01/M02 A2960 RMK AO2 I1001 T10061017 TSNO
PAYA 220839Z AUTO 00000KT 2SM BR CLR M01/M02 A2959 RMK AO2 I1001 T10061017 TSNO
PAYA 220837Z AUTO 00000KT 1 1/4SM BR CLR M01/M02 A2959 RMK AO2 I1001 T10061017 TSNO
PAYA 220830Z AUTO 00000KT 1 1/2SM BR CLR M01/M02 A2959 RMK AO2 I1000 T10061017 TSNO
PAYA 220753Z AUTO 00000KT 10SM CLR 00/M01 A2957 RMK AO2 SLP014 T00001006 TSNO
PAYA 220653Z AUTO 28003KT 9SM CLR 00/00 A2953 RMK AO2 SLP000 T00000000 TSNO
PAYA 220553Z AUTO 00000KT 10SM CLR 01/M01 A2949 RMK AO2 SLP986 60000 T00061006 10033 20006 53041 TSNO
PAYA 220453Z AUTO 00000KT 10SM SCT120 01/M02 A2945 RMK AO2 SLP971 T00111017 TSNO
PAYA 220353Z AUTO 03004KT 10SM OVC110 01/M01 A2940 RMK AO2 SLP957 T00111006 TSNO
PAYA 220253Z AUTO 11006KT 10SM FEW070 FEW080 OVC100 03/M02 A2937 RMK AO2 SLP945 60000 T00281022 53015 TSNO
PAYA 220153Z AUTO 10010KT 10SM BKN065 BKN110 03/M02 A2934 RMK AO2 SLP937 T00331017 TSNO
PAYA 220053Z AUTO 09007KT 10SM OVC049 02/00 A2932 RMK AO2 SNE16 SLP930 P0000 T00220000 TSNO
PAYA 220035Z AUTO 08008KT 10SM BKN037 OVC049 03/M01 A2932 RMK AO2 SNE16 P0000 T00281006 TSNO
PAYA 220017Z AUTO 10009KT 8SM OVC025 02/00 A2933 RMK AO2 SNE16 P0000 T00220000 TSNO
PAYA 220009Z AUTO 10010KT 2SM -SN BR OVC017 02/00 A2932 RMK AO2 P0000 T00220000 TSNO
PAYA 220001Z AUTO 09012KT 1SM -SN BR VV015 02/00 A2932 RMK AO2 P0000 T00170000 TSNO RVRNO
PAYA 212353Z AUTO 09010KT 3/4SM -SN BR VV016 02/00 A2932 RMK AO2 UPB27E30SNB30 SLP930 P0001 60026 T00170000 10022 20011 53004 TSNO RVRNO
PAYA 212346Z AUTO 09012G20KT 1SM -SN BR BKN019 OVC055 02/00 A2932 RMK AO2 UPB27E30SNB30 P0000 T00170000 TSNO RVRNO
PAYA 212336Z AUTO 10013KT 1 3/4SM -SN BR BKN027 BKN042 OVC050 02/00 A2932 RMK AO2 UPB27E30SNB30 P0000 T00170000 TSNO
PAYA 212306Z AUTO 09009KT 10SM BKN034 OVC044 02/01 A2930 RMK AO2 T00220006 TSNO
PAYA 212253Z AUTO 08009KT 9SM BKN025 OVC034 02/01 A2930 RMK AO2 SNE46 SLP923 P0002 T00170006 TSNO
PAYA 212244Z AUTO 10007KT 6SM -SN BR BKN023 OVC032 02/01 A2930 RMK AO2 P0002 T00170006 TSNO
PAYA 212229Z AUTO 10008KT 2SM -SN BR OVC017 02/01 A2931 RMK AO2 P0002 T00170006 TSNO
PAYA 212221Z AUTO 10009KT 1 1/4SM -SN BR OVC015 02/01 A2931 RMK AO2 P0002 T00170006 TSNO
PAYA 212153Z AUTO 09012KT 1/2SM SN FG VV013 01/01 A2931 RMK AO2 SLP926 P0004 T00110006 TSNO RVRNO
PAYA 212125Z AUTO 08010KT 3/4SM -SN BR VV016 01/01 A2932 RMK AO2 P0002 T00110006 TSNO RVRNO
PAYA 212107Z AUTO 08010KT 1/2SM SN FG VV012 01/01 A2932 RMK AO2 P0001 T00110006 TSNO RVRNO
PAYA 212053Z AUTO 08009KT 1/4SM SN FG VV010 01/01 A2933 RMK AO2 SLP931 P0008 60019 T00110006 58021 TSNO RVRNO
PAYA 212001Z AUTO 09012KT 1/4SM SN FG VV012 01/01 A2935 RMK AO2 P0001 T00110006 TSNO RVRNO
PAYA 211953Z AUTO 09012KT 1/2SM SN FG VV014 01/01 A2935 RMK AO2 SLP940 P0005 T00110006 TSNO RVRNO
PAYA 211937Z AUTO 08012KT 1/2SM SN FG VV016 01/01 A2936 RMK AO2 P0004 T00110006 TSNO RVRNO
PAYA 211930Z AUTO 09012KT 1/2SM SN FG VV014 01/01 A2936 RMK AO2 P0003 T00110006 TSNO RVRNO
PAYA 211922Z AUTO 09013KT 1/2SM SN FG VV015 01/01 A2937 RMK AO2 P0003 T00110006 TSNO RVRNO
PAYA 211905Z AUTO 08013KT 1/4SM SN FG VV014 01/01 A2938 RMK AO2 P0000 T00110006 TSNO RVRNO
PAYA 211853Z AUTO 09012KT 1/2SM SN FG VV015 01/01 A2939 RMK AO2 SLP951 P0006 T00110006 TSNO RVRNO
PAYA 211850Z AUTO 09011KT 1/2SM SN FG VV015 01/01 A2939 RMK AO2 P0005 TSNO RVRNO
PAYA 211843Z AUTO 09012KT 1/2SM SN FG VV014 01/01 A2939 RMK AO2 P0005 T00110006 TSNO RVRNO
PAYA 211828Z AUTO 09012KT 1/4SM SN FG VV013 01/01 A2940 RMK AO2 P0004 T00110006 TSNO RVRNO